createdAt,value
2023-01-06T00:00:38.757Z,1.58
2023-01-06T00:03:06.314Z,0.85
2023-01-06T00:05:33.688Z,1.17
2023-01-06T00:08:00.911Z,0.80
2023-01-06T00:10:28.186Z,1.38
2023-01-06T00:12:55.434Z,0.77
2023-01-06T00:15:22.726Z,1.67
2023-01-06T00:17:50.073Z,0.90
2023-01-06T00:20:17.325Z,1.23
2023-01-06T00:22:44.686Z,1.13
2023-01-06T00:25:12.046Z,1.30
2023-01-06T00:27:40.174Z,1.15
2023-01-06T00:30:08.172Z,1.48
2023-01-06T00:32:35.890Z,1.70
2023-01-06T00:35:03.768Z,1.55
2023-01-06T00:37:31.095Z,1.15
2023-01-06T00:39:58.376Z,1.50
2023-01-06T00:42:25.627Z,1.88
2023-01-06T00:44:53.120Z,1.10
2023-01-06T00:47:20.721Z,1.83
2023-01-06T00:49:48.049Z,1.15
2023-01-06T00:52:15.634Z,1.15
2023-01-06T00:54:43.293Z,1.20
2023-01-06T00:57:10.542Z,1.65
2023-01-06T00:59:37.804Z,1.38
2023-01-06T01:02:05.217Z,2.05
2023-01-06T01:04:33.984Z,1.65
2023-01-06T01:07:01.250Z,1.35
2023-01-06T01:09:30.069Z,1.17
2023-01-06T01:12:09.755Z,1.35
2023-01-06T01:14:38.024Z,1.00
2023-01-06T01:17:05.301Z,1.15
2023-01-06T01:19:32.928Z,1.27
2023-01-06T01:22:00.196Z,4.35
2023-01-06T01:24:27.558Z,2.45
2023-01-06T01:26:54.777Z,2.22
2023-01-06T01:29:21.990Z,2.45
2023-01-06T01:31:49.328Z,0.90
2023-01-06T01:34:17.646Z,1.08
2023-01-06T01:36:46.052Z,1.13
2023-01-06T01:39:14.209Z,1.20
2023-01-06T01:41:41.447Z,1.77
2023-01-06T01:44:27.510Z,1.17
2023-01-06T01:46:54.969Z,1.27
2023-01-06T01:49:25.207Z,1.23
2023-01-06T01:51:54.078Z,1.35
2023-01-06T01:54:31.933Z,1.63
2023-01-06T01:57:04.778Z,1.30
2023-01-06T01:59:33.035Z,1.05
2023-01-06T02:02:00.656Z,1.73
2023-01-06T02:04:28.976Z,1.40
2023-01-06T02:06:56.562Z,1.38
2023-01-06T02:09:59.363Z,1.20
2023-01-06T02:12:26.631Z,2.10
2023-01-06T02:14:53.918Z,2.25
2023-01-06T02:17:23.950Z,1.20
2023-01-06T02:20:09.915Z,1.95
2023-01-06T02:22:37.159Z,1.70
2023-01-06T02:25:07.414Z,3.00
2023-01-06T02:27:37.192Z,1.42
2023-01-06T02:30:13.639Z,1.42
2023-01-06T02:32:53.330Z,1.25
2023-01-06T02:35:27.247Z,1.38
2023-01-06T02:38:06.736Z,1.13
2023-01-06T02:40:51.862Z,1.48
2023-01-06T02:43:28.303Z,1.42
2023-01-06T02:45:59.091Z,1.42
2023-01-06T02:48:26.298Z,0.90
2023-01-06T02:51:02.381Z,1.33
2023-01-06T02:53:29.616Z,1.52
2023-01-06T02:55:57.956Z,1.52
2023-01-06T02:58:34.443Z,1.58
2023-01-06T03:01:05.628Z,1.52
2023-01-06T03:03:34.455Z,0.60
2023-01-06T03:06:07.105Z,0.70
2023-01-06T03:08:35.568Z,1.17
2023-01-06T03:11:03.617Z,1.00
2023-01-06T03:13:49.268Z,0.90
2023-01-06T03:16:16.890Z,1.60
2023-01-06T03:18:45.239Z,0.98
2023-01-06T03:21:15.333Z,1.50
2023-01-06T03:23:43.570Z,1.10
2023-01-06T03:26:11.018Z,1.45
2023-01-06T03:28:38.311Z,1.48
2023-01-06T03:31:05.573Z,1.77
2023-01-06T03:33:53.173Z,2.47
2023-01-06T03:36:25.689Z,1.83
2023-01-06T03:39:02.258Z,3.25
2023-01-06T03:41:50.785Z,1.52
2023-01-06T03:44:30.433Z,2.15
2023-01-06T03:47:04.728Z,2.20
2023-01-06T03:49:33.177Z,1.85
2023-01-06T03:52:10.798Z,2.35
2023-01-06T03:54:44.389Z,2.63
2023-01-06T03:57:37.828Z,2.25
2023-01-06T04:00:13.343Z,1.63
2023-01-06T04:02:41.714Z,2.30
2023-01-06T04:05:12.032Z,2.10
2023-01-06T04:07:39.906Z,1.52
2023-01-06T04:10:07.684Z,2.47
2023-01-06T04:12:41.089Z,2.38
2023-01-06T04:15:10.558Z,1.55
2023-01-06T04:17:38.480Z,2.30
2023-01-06T04:20:06.535Z,1.92
2023-01-06T04:22:33.827Z,1.70
2023-01-06T04:25:01.116Z,2.05
2023-01-06T04:27:28.372Z,2.20
2023-01-06T04:29:55.653Z,2.35
2023-01-06T04:32:22.845Z,1.70
2023-01-06T04:34:50.116Z,1.35
2023-01-06T04:37:17.668Z,2.67
2023-01-06T04:39:44.961Z,2.20
2023-01-06T04:42:12.323Z,2.03
2023-01-06T04:44:39.582Z,2.13
2023-01-06T04:47:06.815Z,2.53
2023-01-06T04:49:34.257Z,2.55
2023-01-06T04:52:01.497Z,2.03
2023-01-06T04:54:28.739Z,2.10
2023-01-06T04:56:55.993Z,2.67
2023-01-06T04:59:23.227Z,3.85
2023-01-06T05:01:50.413Z,1.92
2023-01-06T05:04:17.652Z,2.42
2023-01-06T05:06:44.938Z,2.47
2023-01-06T05:09:12.197Z,1.90
2023-01-06T05:11:39.466Z,1.48
2023-01-06T05:14:06.765Z,2.10
2023-01-06T05:16:34.764Z,2.42
2023-01-06T05:19:02.395Z,1.98
2023-01-06T05:21:32.506Z,2.83
2023-01-06T05:24:00.210Z,1.45
2023-01-06T05:26:28.132Z,2.05
2023-01-06T05:28:55.671Z,1.70
2023-01-06T05:31:23.268Z,1.83
2023-01-06T05:33:50.575Z,1.48
2023-01-06T05:36:18.810Z,1.30
2023-01-06T05:38:46.542Z,1.15
2023-01-06T05:41:13.741Z,1.60
2023-01-06T05:43:40.943Z,1.60
2023-01-06T05:46:09.104Z,2.38
2023-01-06T05:48:36.630Z,0.80
2023-01-06T05:51:08.227Z,1.45
2023-01-06T05:53:36.208Z,1.30
2023-01-06T05:56:03.888Z,0.95
2023-01-06T05:58:33.456Z,0.93
2023-01-06T06:01:01.221Z,1.05
2023-01-06T06:03:28.508Z,1.00
2023-01-06T06:05:55.754Z,0.35
2023-01-06T06:08:23.041Z,0.70
2023-01-06T06:10:50.273Z,0.20
2023-01-06T06:13:17.523Z,0.30
2023-01-06T06:15:45.811Z,0.20
2023-01-06T06:18:13.034Z,0.15
2023-01-06T06:20:40.250Z,0.13
2023-01-06T06:23:07.468Z,0.20
2023-01-06T06:25:34.762Z,0.10
2023-01-06T06:28:01.987Z,0.10
2023-01-06T06:30:29.191Z,0.43
2023-01-06T06:32:56.494Z,0.10
2023-01-06T06:35:23.734Z,0.20
2023-01-06T06:37:54.333Z,0.20
2023-01-06T06:40:21.539Z,0.55
2023-01-06T06:42:52.131Z,0.73
2023-01-06T06:45:19.663Z,0.20
2023-01-06T06:47:46.859Z,0.32
2023-01-06T06:50:14.469Z,0.60
2023-01-06T06:52:41.693Z,0.68
2023-01-06T06:55:09.163Z,0.57
2023-01-06T06:57:36.441Z,0.60
2023-01-06T07:00:04.260Z,0.68
2023-01-06T07:02:31.453Z,0.70
2023-01-06T07:04:58.834Z,0.50
2023-01-06T07:07:26.080Z,0.63
2023-01-06T07:09:53.338Z,0.57
2023-01-06T07:12:20.692Z,0.40
2023-01-06T07:14:47.984Z,0.70
2023-01-06T07:17:15.564Z,0.40
2023-01-06T07:19:42.799Z,0.95
2023-01-06T07:22:10.013Z,0.60
2023-01-06T07:24:37.523Z,2.10
2023-01-06T07:27:04.751Z,0.70
2023-01-06T07:29:32.005Z,0.50
2023-01-06T07:31:59.862Z,0.70
2023-01-06T07:34:27.348Z,0.77
2023-01-06T07:36:54.638Z,0.60
2023-01-06T07:39:21.883Z,0.30
2023-01-06T07:41:49.114Z,0.30
2023-01-06T07:44:17.975Z,0.40
2023-01-06T07:46:45.330Z,0.10
2023-01-06T07:49:12.596Z,1.35
2023-01-06T07:51:39.791Z,0.32
2023-01-06T07:54:07.266Z,0.32
2023-01-06T07:56:34.554Z,0.32
2023-01-06T07:59:01.789Z,0.30
2023-01-06T08:01:29.068Z,0.43
2023-01-06T08:03:56.441Z,0.85
2023-01-06T08:06:23.637Z,0.40
2023-01-06T08:08:50.962Z,0.40
2023-01-06T08:11:18.670Z,0.30
2023-01-06T08:13:46.031Z,0.50
2023-01-06T08:16:13.914Z,0.40
2023-01-06T08:18:41.202Z,0.70
2023-01-06T08:21:09.420Z,0.47
2023-01-06T08:23:37.352Z,0.20
2023-01-06T08:26:08.845Z,0.30
2023-01-06T08:28:36.245Z,0.30
2023-01-06T08:31:04.619Z,1.20
2023-01-06T08:33:31.891Z,0.43
2023-01-06T08:36:03.184Z,0.30
2023-01-06T08:38:30.873Z,0.50
2023-01-06T08:40:58.777Z,0.65
2023-01-06T08:43:26.698Z,0.50
2023-01-06T08:45:54.616Z,0.55
2023-01-06T08:48:21.957Z,0.40
2023-01-06T08:50:49.206Z,0.40
2023-01-06T08:53:16.461Z,1.02
2023-01-06T08:55:43.909Z,0.32
2023-01-06T08:58:11.521Z,0.60
2023-01-06T09:00:40.375Z,0.63
2023-01-06T09:03:07.618Z,0.57
2023-01-06T09:05:34.941Z,0.68
2023-01-06T09:08:02.228Z,0.77
2023-01-06T09:10:29.525Z,0.20
2023-01-06T09:12:56.821Z,0.50
2023-01-06T09:15:24.058Z,0.65
2023-01-06T09:17:51.373Z,0.43
2023-01-06T09:20:18.678Z,0.50
2023-01-06T09:22:46.470Z,0.40
2023-01-06T09:25:13.830Z,0.60
2023-01-06T09:27:41.101Z,0.40
2023-01-06T09:30:08.562Z,0.52
2023-01-06T09:32:35.880Z,0.90
2023-01-06T09:35:03.251Z,1.00
2023-01-06T09:37:30.557Z,0.47
2023-01-06T09:39:57.769Z,0.50
2023-01-06T09:42:28.022Z,0.40
2023-01-06T09:44:57.594Z,0.50
2023-01-06T09:47:27.287Z,0.70
2023-01-06T09:49:58.630Z,0.47
2023-01-06T09:52:46.751Z,0.50
2023-01-06T09:55:26.342Z,0.57
2023-01-06T09:57:59.063Z,0.50
2023-01-06T10:00:35.337Z,0.57
2023-01-06T10:03:02.745Z,0.63
2023-01-06T10:05:42.060Z,0.57
2023-01-06T10:08:12.399Z,0.57
2023-01-06T10:10:45.349Z,0.43
2023-01-06T10:13:27.481Z,0.50
2023-01-06T10:16:12.943Z,0.80
2023-01-06T10:19:01.588Z,0.38
2023-01-06T10:21:33.819Z,0.70
2023-01-06T10:24:24.138Z,0.40
2023-01-06T10:26:55.948Z,0.45
2023-01-06T10:29:24.138Z,0.53
2023-01-06T10:31:52.277Z,0.65
2023-01-06T10:34:19.476Z,0.80
2023-01-06T10:36:48.345Z,0.70
2023-01-06T10:39:17.286Z,0.63
2023-01-06T10:41:53.780Z,0.60
2023-01-06T10:44:21.217Z,0.52
2023-01-06T10:46:50.171Z,0.75
2023-01-06T10:49:22.779Z,0.60
2023-01-06T10:51:52.503Z,0.70
2023-01-06T10:54:22.230Z,1.80
2023-01-06T10:56:53.572Z,0.52
2023-01-06T10:59:20.852Z,0.73
2023-01-06T11:01:50.236Z,0.47
2023-01-06T11:04:19.866Z,0.50
2023-01-06T11:06:50.600Z,0.60
2023-01-06T11:09:26.337Z,0.60
2023-01-06T11:11:54.251Z,0.57
2023-01-06T11:14:24.162Z,0.70
2023-01-06T11:17:02.332Z,0.60
2023-01-06T11:19:35.405Z,1.25
2023-01-06T11:22:02.715Z,0.60
2023-01-06T11:24:30.323Z,0.60
2023-01-06T11:26:59.114Z,0.45
2023-01-06T11:29:28.005Z,0.43
2023-01-06T11:31:55.653Z,0.52
2023-01-06T11:34:24.552Z,0.60
2023-01-06T11:36:52.529Z,0.50
2023-01-06T11:39:26.406Z,0.50
2023-01-06T11:41:54.500Z,0.50
2023-01-06T11:44:35.821Z,0.43
2023-01-06T11:47:05.351Z,0.85
2023-01-06T11:49:35.829Z,0.73
2023-01-06T11:52:08.139Z,0.32
2023-01-06T11:54:35.377Z,1.13
2023-01-06T11:57:15.138Z,0.60
2023-01-06T11:59:54.448Z,0.73
2023-01-06T12:02:26.515Z,0.50
2023-01-06T12:04:54.248Z,0.63
2023-01-06T12:07:26.172Z,0.55
2023-01-06T12:09:54.484Z,0.40
2023-01-06T12:12:24.256Z,0.60
2023-01-06T12:14:51.482Z,0.30
2023-01-06T12:17:26.115Z,0.50
2023-01-06T12:19:56.797Z,0.60
2023-01-06T12:22:29.973Z,0.38
2023-01-06T12:24:58.457Z,0.68
2023-01-06T12:27:33.032Z,0.60
2023-01-06T12:30:01.452Z,0.68
2023-01-06T12:32:32.594Z,0.60
2023-01-06T12:35:02.266Z,0.40
2023-01-06T12:37:29.485Z,0.55
2023-01-06T12:39:56.674Z,0.68
2023-01-06T12:42:36.566Z,0.32
2023-01-06T12:45:10.255Z,0.40
2023-01-06T12:47:40.513Z,0.52
2023-01-06T12:50:23.010Z,0.30
2023-01-06T12:52:52.496Z,0.38
2023-01-06T12:55:22.036Z,0.50
2023-01-06T12:58:00.642Z,0.40
2023-01-06T13:00:27.884Z,0.52
2023-01-06T13:03:21.418Z,0.40
2023-01-06T13:05:48.635Z,0.40
2023-01-06T13:08:34.605Z,0.50
2023-01-06T13:11:11.073Z,0.50
2023-01-06T13:13:38.353Z,0.50
2023-01-06T13:16:34.787Z,0.50
2023-01-06T13:19:13.211Z,0.50
2023-01-06T13:21:40.955Z,0.45
2023-01-06T13:24:27.122Z,0.30
2023-01-06T13:26:57.078Z,0.43
2023-01-06T13:29:43.428Z,0.50
2023-01-06T13:32:10.776Z,0.40
2023-01-06T13:34:53.415Z,0.57
2023-01-06T13:37:29.695Z,0.20
2023-01-06T13:40:01.476Z,0.20
2023-01-06T13:42:34.368Z,0.43
2023-01-06T13:45:02.074Z,0.30
2023-01-06T13:47:30.668Z,0.28
2023-01-06T13:49:59.343Z,0.22
2023-01-06T13:52:28.060Z,0.28
2023-01-06T13:55:02.970Z,0.32
2023-01-06T13:57:35.389Z,0.75
2023-01-06T14:00:05.535Z,0.73
2023-01-06T14:02:52.835Z,0.10
2023-01-06T14:05:20.121Z,0.20
2023-01-06T14:07:59.702Z,0.17
2023-01-06T14:10:27.078Z,0.10
2023-01-06T14:12:54.901Z,0.28
2023-01-06T14:15:26.987Z,0.20
2023-01-06T14:17:54.382Z,0.45
2023-01-06T14:20:34.103Z,0.25
2023-01-06T14:23:05.829Z,0.30
2023-01-06T14:25:37.602Z,0.43
2023-01-06T14:28:04.891Z,0.70
2023-01-06T14:30:33.490Z,0.60
2023-01-06T14:33:05.860Z,0.40
2023-01-06T14:35:43.938Z,0.50
2023-01-06T14:38:18.977Z,0.80
2023-01-06T14:40:52.332Z,1.10
2023-01-06T14:43:30.699Z,0.77
2023-01-06T14:46:02.768Z,0.70
2023-01-06T14:48:33.043Z,0.60
2023-01-06T14:51:00.341Z,1.10
2023-01-06T14:53:32.857Z,2.20
2023-01-06T14:56:00.567Z,1.30
2023-01-06T14:58:32.037Z,1.45
2023-01-06T15:01:00.006Z,0.90
2023-01-06T15:03:28.624Z,1.15
2023-01-06T15:06:12.746Z,1.23
2023-01-06T15:08:40.049Z,1.63
2023-01-06T15:11:27.835Z,1.73
2023-01-06T15:13:55.259Z,1.33
2023-01-06T15:16:34.856Z,1.35
2023-01-06T15:19:02.197Z,2.00
2023-01-06T15:21:29.724Z,1.23
2023-01-06T15:23:57.004Z,0.73
2023-01-06T15:26:28.659Z,0.95
2023-01-06T15:29:03.463Z,0.88
2023-01-06T15:31:33.517Z,1.15
2023-01-06T15:34:02.093Z,2.35
2023-01-06T15:36:30.240Z,1.52
2023-01-06T15:39:01.337Z,0.82
2023-01-06T15:41:37.361Z,0.98
2023-01-06T15:44:21.332Z,2.90
2023-01-06T15:46:49.884Z,1.80
2023-01-06T15:49:29.060Z,1.17
2023-01-06T15:52:19.089Z,1.17
2023-01-06T15:54:46.790Z,1.83
2023-01-06T15:57:17.183Z,1.17
2023-01-06T16:00:04.948Z,2.17
2023-01-06T16:02:33.513Z,2.08
2023-01-06T16:05:01.449Z,1.42
2023-01-06T16:07:35.213Z,1.20
2023-01-06T16:10:02.572Z,0.80
2023-01-06T16:12:30.017Z,0.82
2023-01-06T16:14:57.281Z,1.10
2023-01-06T16:17:32.324Z,0.90
2023-01-06T16:20:01.401Z,1.00
2023-01-06T16:22:32.816Z,1.10
2023-01-06T16:25:02.006Z,1.25
2023-01-06T16:27:29.514Z,1.30
2023-01-06T16:30:09.042Z,0.88
2023-01-06T16:32:38.755Z,1.10
2023-01-06T16:35:11.615Z,1.40
2023-01-06T16:37:39.145Z,1.75
2023-01-06T16:40:06.718Z,1.92
2023-01-06T16:42:44.667Z,1.35
2023-01-06T16:45:30.820Z,1.15
2023-01-06T16:47:58.245Z,0.73
2023-01-06T16:50:25.545Z,1.65
2023-01-06T16:53:01.625Z,2.40
2023-01-06T16:55:29.536Z,1.88
2023-01-06T16:57:57.541Z,2.03
2023-01-06T17:00:24.843Z,1.80
2023-01-06T17:02:52.484Z,2.03
2023-01-06T17:05:19.889Z,1.80
2023-01-06T17:07:47.854Z,1.67
2023-01-06T17:10:16.959Z,1.42
2023-01-06T17:13:03.108Z,1.67
2023-01-06T17:15:30.341Z,1.77
2023-01-06T17:17:57.666Z,2.13
2023-01-06T17:20:25.451Z,2.13
2023-01-06T17:22:52.683Z,1.50
2023-01-06T17:25:20.222Z,1.80
2023-01-06T17:27:48.320Z,1.80
2023-01-06T17:30:17.604Z,2.05
2023-01-06T17:32:45.247Z,2.20
2023-01-06T17:35:29.120Z,1.92
2023-01-06T17:37:58.940Z,1.85
2023-01-06T17:40:33.722Z,2.13
2023-01-06T17:43:02.888Z,1.90
2023-01-06T17:45:30.304Z,1.88
2023-01-06T17:47:58.044Z,1.50
2023-01-06T17:50:28.381Z,1.60
2023-01-06T17:53:40.542Z,2.33
2023-01-06T17:56:08.907Z,1.65
2023-01-06T17:58:40.531Z,1.88
2023-01-06T18:01:08.977Z,1.48
2023-01-06T18:03:41.869Z,1.63
2023-01-06T18:08:38.155Z,1.30
2023-01-06T18:11:11.415Z,1.90
2023-01-06T18:13:39.986Z,1.27
2023-01-06T18:16:19.479Z,2.92
2023-01-06T18:18:47.080Z,1.67
2023-01-06T18:21:17.486Z,1.40
2023-01-06T18:23:49.028Z,1.00
2023-01-06T18:26:28.694Z,1.52
2023-01-06T18:29:00.847Z,2.20
2023-01-06T18:31:30.362Z,1.55
2023-01-06T18:33:57.780Z,1.63
2023-01-06T18:36:25.365Z,1.70
2023-01-06T18:38:52.547Z,1.30
2023-01-06T18:41:19.818Z,1.42
2023-01-06T18:43:47.110Z,1.27
2023-01-06T18:46:15.706Z,1.55
2023-01-06T18:48:43.394Z,1.20
2023-01-06T18:51:19.276Z,1.02
2023-01-06T18:53:49.943Z,1.60
2023-01-06T18:56:18.641Z,1.73
2023-01-06T18:58:50.148Z,1.20
2023-01-06T19:01:17.997Z,1.45
2023-01-06T19:03:58.248Z,1.48
2023-01-06T19:06:35.618Z,1.40
2023-01-06T19:09:09.695Z,1.20
2023-01-06T19:11:37.504Z,1.50
2023-01-06T19:14:07.108Z,1.00
2023-01-06T19:16:47.325Z,1.48
2023-01-06T19:19:19.497Z,1.40
2023-01-06T19:21:46.735Z,0.90
2023-01-06T19:24:29.483Z,1.20
2023-01-06T19:26:57.623Z,1.20
2023-01-06T19:29:27.228Z,1.27
2023-01-06T19:31:58.458Z,1.08
2023-01-06T19:34:26.558Z,1.40
2023-01-06T19:36:55.139Z,0.82
2023-01-06T19:39:22.387Z,1.42
2023-01-06T19:41:49.808Z,1.02
2023-01-06T19:44:17.093Z,1.10
2023-01-06T19:46:45.855Z,1.33
2023-01-06T19:49:22.962Z,1.10
2023-01-06T19:51:51.445Z,1.33
2023-01-06T19:54:26.498Z,1.35
2023-01-06T19:56:54.417Z,1.10
2023-01-06T19:59:29.080Z,1.10
2023-01-06T20:02:08.534Z,1.00
2023-01-06T20:04:36.119Z,0.90
2023-01-06T20:07:03.676Z,1.23
2023-01-06T20:09:33.432Z,1.08
2023-01-06T20:12:01.279Z,1.20
2023-01-06T20:14:28.620Z,1.77
2023-01-06T20:16:57.018Z,1.00
2023-01-06T20:19:24.382Z,1.50
2023-01-06T20:21:51.648Z,1.00
2023-01-06T20:24:19.044Z,1.00
2023-01-06T20:26:46.289Z,0.70
2023-01-06T20:29:13.573Z,1.08
2023-01-06T20:31:40.873Z,0.80
2023-01-06T20:34:08.177Z,0.90
2023-01-06T20:36:35.461Z,0.80
2023-01-06T20:39:02.660Z,1.20
2023-01-06T20:41:29.894Z,0.90
2023-01-06T20:43:57.180Z,1.02
2023-01-06T20:46:24.514Z,0.95
2023-01-06T20:48:52.016Z,1.10
2023-01-06T20:51:19.248Z,0.90
2023-01-06T20:53:46.743Z,0.90
2023-01-06T20:56:14.061Z,0.95
2023-01-06T20:58:41.301Z,0.90
2023-01-06T21:01:08.644Z,1.00
2023-01-06T21:03:36.062Z,0.80
2023-01-06T21:06:03.598Z,0.90
2023-01-06T21:08:30.816Z,0.82
2023-01-06T21:10:58.041Z,1.35
2023-01-06T21:13:25.385Z,1.15
2023-01-06T21:15:52.671Z,1.50
2023-01-06T21:18:19.908Z,0.70
2023-01-06T21:20:49.349Z,1.13
2023-01-06T21:23:16.852Z,1.02
2023-01-06T21:25:44.120Z,1.15
2023-01-06T21:28:11.517Z,1.15
2023-01-06T21:30:38.801Z,1.10
2023-01-06T21:33:06.060Z,2.17
2023-01-06T21:35:33.344Z,0.93
2023-01-06T21:38:00.697Z,0.70
2023-01-06T21:40:27.934Z,1.30
2023-01-06T21:43:10.238Z,0.88
2023-01-06T21:45:38.646Z,1.13
2023-01-06T21:48:06.410Z,1.33
2023-01-06T21:50:34.666Z,0.85
2023-01-06T21:53:02.522Z,1.15
2023-01-06T21:55:29.855Z,0.98
2023-01-06T21:57:57.187Z,1.02
2023-01-06T22:00:24.490Z,0.98
2023-01-06T22:02:53.421Z,1.60
2023-01-06T22:05:20.888Z,0.60
2023-01-06T22:07:50.270Z,0.70
2023-01-06T22:10:18.531Z,0.70
2023-01-06T22:12:47.792Z,1.10
2023-01-06T22:15:15.647Z,1.05
2023-01-06T22:17:42.957Z,1.10
2023-01-06T22:20:10.574Z,1.10
2023-01-06T22:22:37.910Z,1.17
2023-01-06T22:25:06.297Z,1.58
2023-01-06T22:27:33.605Z,1.23
2023-01-06T22:30:00.871Z,1.20
2023-01-06T22:32:28.432Z,1.30
2023-01-06T22:34:55.684Z,1.35
2023-01-06T22:37:22.984Z,1.30
2023-01-06T22:39:50.308Z,1.27
2023-01-06T22:42:17.522Z,1.67
2023-01-06T22:44:44.906Z,1.20
2023-01-06T22:47:12.198Z,1.33
2023-01-06T22:49:39.413Z,1.05
2023-01-06T22:52:06.744Z,1.20
2023-01-06T22:54:34.018Z,1.38
2023-01-06T22:57:01.247Z,1.85
2023-01-06T22:59:28.617Z,1.00
2023-01-06T23:01:56.018Z,1.40
2023-01-06T23:04:23.374Z,1.10
2023-01-06T23:06:50.638Z,1.10
2023-01-06T23:09:18.036Z,1.10
2023-01-06T23:11:45.307Z,1.10
2023-01-06T23:14:13.291Z,1.70
2023-01-06T23:16:41.953Z,1.33
2023-01-06T23:19:11.924Z,0.90
2023-01-06T23:21:39.745Z,1.65
2023-01-06T23:24:07.761Z,1.33
2023-01-06T23:26:38.426Z,1.40
2023-01-06T23:29:05.808Z,1.45
2023-01-06T23:31:34.571Z,1.35
2023-01-06T23:34:04.580Z,1.27
2023-01-06T23:36:31.929Z,1.58
2023-01-06T23:38:59.691Z,1.17
2023-01-06T23:41:28.508Z,1.60
2023-01-06T23:43:56.504Z,1.67
2023-01-06T23:46:27.817Z,1.52
2023-01-06T23:48:55.571Z,2.38
2023-01-06T23:51:23.025Z,2.55
2023-01-06T23:53:50.324Z,1.25
2023-01-06T23:56:18.960Z,1.80
2023-01-06T23:58:47.029Z,1.33
